createdAt,value
2017-10-19T00:00:33.949Z,38.90
2017-10-19T00:03:02.230Z,25.37
2017-10-19T00:05:30.625Z,24.43
2017-10-19T00:07:58.909Z,24.27
2017-10-19T00:10:27.207Z,22.37
2017-10-19T00:12:56.242Z,25.30
2017-10-19T00:15:24.648Z,21.33
2017-10-19T00:17:53.016Z,25.27
2017-10-19T00:20:21.397Z,22.33
2017-10-19T00:22:49.660Z,28.23
2017-10-19T00:25:17.955Z,26.90
2017-10-19T00:27:46.241Z,24.57
2017-10-19T00:30:14.521Z,35.60
2017-10-19T00:32:42.805Z,23.90
2017-10-19T00:35:11.160Z,30.00
2017-10-19T00:37:39.547Z,25.77
2017-10-19T00:40:07.924Z,27.23
2017-10-19T00:42:36.216Z,28.70
2017-10-19T00:45:04.480Z,26.03
2017-10-19T00:47:32.775Z,27.20
2017-10-19T00:50:01.053Z,27.23
2017-10-19T00:52:30.145Z,31.17
2017-10-19T00:54:58.449Z,25.53
2017-10-19T00:57:27.484Z,24.60
2017-10-19T00:59:55.987Z,25.23
2017-10-19T01:02:24.269Z,29.23
2017-10-19T01:04:52.556Z,24.13
2017-10-19T01:07:20.825Z,25.60
2017-10-19T01:09:49.111Z,29.93
2017-10-19T01:12:17.390Z,24.67
2017-10-19T01:14:45.687Z,26.10
2017-10-19T01:17:14.734Z,27.20
2017-10-19T01:19:43.117Z,25.07
2017-10-19T01:22:11.501Z,35.00
2017-10-19T01:24:39.798Z,28.23
2017-10-19T01:27:08.077Z,22.17
2017-10-19T01:29:36.431Z,29.20
2017-10-19T01:32:04.692Z,23.03
2017-10-19T01:34:33.008Z,22.43
2017-10-19T01:37:01.284Z,25.83
2017-10-19T01:39:29.558Z,33.03
2017-10-19T01:41:57.863Z,30.50
2017-10-19T01:44:26.913Z,22.27
2017-10-19T01:46:55.211Z,24.83
2017-10-19T01:49:23.464Z,26.27
2017-10-19T01:51:51.852Z,26.93
2017-10-19T01:54:20.119Z,30.50
2017-10-19T01:56:48.421Z,25.47
2017-10-19T01:59:16.697Z,31.70
2017-10-19T02:01:45.049Z,24.40
2017-10-19T02:04:13.331Z,23.97
2017-10-19T02:06:41.623Z,24.73
2017-10-19T02:09:09.918Z,25.73
2017-10-19T02:11:39.017Z,26.80
2017-10-19T02:14:08.078Z,29.90
2017-10-19T02:16:36.668Z,24.40
2017-10-19T02:19:04.956Z,27.67
2017-10-19T02:21:33.312Z,26.20
2017-10-19T02:24:01.801Z,24.43
2017-10-19T02:26:30.074Z,29.80
2017-10-19T02:28:58.463Z,27.27
2017-10-19T02:31:26.786Z,24.80
2017-10-19T02:33:55.928Z,25.70
2017-10-19T02:36:24.218Z,24.10
2017-10-19T02:38:53.274Z,25.33
2017-10-19T02:41:21.557Z,30.37
2017-10-19T02:43:49.962Z,25.63
2017-10-19T02:46:18.239Z,24.87
2017-10-19T02:48:46.528Z,30.67
2017-10-19T02:51:14.790Z,29.37
2017-10-19T02:53:43.173Z,28.83
2017-10-19T02:56:11.443Z,23.93
2017-10-19T02:58:39.715Z,23.80
2017-10-19T03:01:08.123Z,22.97
2017-10-19T03:03:36.395Z,32.00
2017-10-19T03:06:04.704Z,26.77
2017-10-19T03:08:32.976Z,27.87
2017-10-19T03:11:01.303Z,21.93
2017-10-19T03:13:30.334Z,24.63
2017-10-19T03:15:58.665Z,24.40
2017-10-19T03:18:26.949Z,28.07
2017-10-19T03:20:55.325Z,24.33
2017-10-19T03:23:23.713Z,23.40
2017-10-19T03:25:52.006Z,27.17
2017-10-19T03:28:20.264Z,29.93
2017-10-19T03:30:49.341Z,28.17
2017-10-19T03:33:17.609Z,26.93
2017-10-19T03:35:45.915Z,28.50
2017-10-19T03:38:15.005Z,27.13
2017-10-19T03:40:43.280Z,26.00
2017-10-19T03:43:12.378Z,23.23
2017-10-19T03:45:41.473Z,24.27
2017-10-19T03:48:10.527Z,21.07
2017-10-19T03:50:39.160Z,27.40
2017-10-19T03:53:07.534Z,26.37
2017-10-19T03:55:35.906Z,29.50
2017-10-19T03:58:04.291Z,29.37
2017-10-19T04:00:32.582Z,30.40
2017-10-19T04:03:02.360Z,27.83
2017-10-19T04:05:30.629Z,23.80
2017-10-19T04:07:58.917Z,28.73
2017-10-19T04:10:27.239Z,28.83
2017-10-19T04:12:56.290Z,22.20
2017-10-19T04:15:24.698Z,25.00
2017-10-19T04:17:52.963Z,27.47
2017-10-19T04:20:21.257Z,29.77
2017-10-19T04:22:50.315Z,26.97
2017-10-19T04:25:18.593Z,24.80
2017-10-19T04:27:46.888Z,22.20
2017-10-19T04:30:15.268Z,30.70
2017-10-19T04:32:43.538Z,27.27
2017-10-19T04:35:11.938Z,26.03
2017-10-19T04:37:40.212Z,26.07
2017-10-19T04:40:08.579Z,23.87
2017-10-19T04:42:36.856Z,29.60
2017-10-19T04:45:05.148Z,27.10
2017-10-19T04:47:33.413Z,29.97
2017-10-19T04:50:03.239Z,23.40
2017-10-19T04:52:31.615Z,30.50
2017-10-19T04:54:59.879Z,30.20
2017-10-19T04:57:28.265Z,22.40
2017-10-19T04:59:56.536Z,38.20
2017-10-19T05:02:24.824Z,33.27
2017-10-19T05:04:53.916Z,26.13
2017-10-19T05:07:22.302Z,27.37
2017-10-19T05:09:50.587Z,22.83
2017-10-19T05:12:18.874Z,28.20
2017-10-19T05:14:47.896Z,26.27
2017-10-19T05:17:16.226Z,22.67
2017-10-19T05:19:44.596Z,20.00
2017-10-19T05:22:12.884Z,25.17
2017-10-19T05:24:42.080Z,26.23
2017-10-19T05:27:10.424Z,23.20
2017-10-19T05:29:40.085Z,30.13
2017-10-19T05:32:08.406Z,21.10
2017-10-19T05:34:36.763Z,22.77
2017-10-19T05:37:07.563Z,26.53
2017-10-19T05:39:35.925Z,29.73
2017-10-19T05:42:04.232Z,29.43
2017-10-19T05:44:34.189Z,22.60
2017-10-19T05:47:02.947Z,28.07
2017-10-19T05:49:32.083Z,21.80
2017-10-19T05:52:00.394Z,24.90
2017-10-19T05:54:28.657Z,24.17
2017-10-19T05:56:57.100Z,31.57
2017-10-19T05:59:25.370Z,26.40
2017-10-19T06:01:53.728Z,28.60
2017-10-19T06:04:22.810Z,24.00
2017-10-19T06:06:52.088Z,26.20
2017-10-19T06:09:21.129Z,26.07
2017-10-19T06:11:49.405Z,27.17
2017-10-19T06:14:18.468Z,26.97
2017-10-19T06:16:46.760Z,27.00
2017-10-19T06:19:15.040Z,24.53
2017-10-19T06:21:43.328Z,23.80
2017-10-19T06:24:11.861Z,26.63
2017-10-19T06:26:40.909Z,27.63
2017-10-19T06:29:09.281Z,22.10
2017-10-19T06:31:37.545Z,24.90
2017-10-19T06:34:05.945Z,26.30
2017-10-19T06:36:34.324Z,24.90
2017-10-19T06:39:02.611Z,27.80
2017-10-19T06:41:30.889Z,25.80
2017-10-19T06:43:59.171Z,27.43
2017-10-19T06:46:27.469Z,24.70
2017-10-19T06:48:56.525Z,31.60
2017-10-19T06:51:24.814Z,33.63
2017-10-19T06:53:53.193Z,25.07
2017-10-19T06:56:21.466Z,29.10
2017-10-19T06:58:50.519Z,24.90
2017-10-19T07:01:18.833Z,29.00
2017-10-19T07:03:47.129Z,36.03
2017-10-19T07:06:15.404Z,37.37
2017-10-19T07:08:43.761Z,36.77
2017-10-19T07:11:12.049Z,36.30
2017-10-19T07:13:40.336Z,40.03
2017-10-19T07:16:08.622Z,35.23
2017-10-19T07:18:37.701Z,36.30
2017-10-19T07:21:05.965Z,33.60
2017-10-19T07:23:34.259Z,39.50
2017-10-19T07:26:02.528Z,39.83
2017-10-19T07:28:30.828Z,31.93
2017-10-19T07:30:59.887Z,44.57
2017-10-19T07:33:28.182Z,37.67
2017-10-19T07:35:56.596Z,33.87
2017-10-19T07:38:25.644Z,37.33
2017-10-19T07:40:54.029Z,32.10
2017-10-19T07:43:22.351Z,42.10
2017-10-19T07:45:51.393Z,39.20
2017-10-19T07:48:19.668Z,43.50
2017-10-19T07:50:47.962Z,40.47
2017-10-19T07:53:16.249Z,37.73
2017-10-19T07:55:44.535Z,37.77
2017-10-19T07:58:13.589Z,33.90
2017-10-19T08:00:41.889Z,43.10
2017-10-19T08:03:11.701Z,40.00
2017-10-19T08:05:40.089Z,38.87
2017-10-19T08:08:08.372Z,44.53
2017-10-19T08:10:37.424Z,47.90
2017-10-19T08:13:05.688Z,37.43
2017-10-19T08:15:33.979Z,37.30
2017-10-19T08:18:02.284Z,46.53
2017-10-19T08:20:30.572Z,38.20
2017-10-19T08:22:58.853Z,41.20
2017-10-19T08:25:27.143Z,43.40
2017-10-19T08:27:56.185Z,33.57
2017-10-19T08:30:24.481Z,48.53
2017-10-19T08:32:52.747Z,37.83
2017-10-19T08:35:21.028Z,37.97
2017-10-19T08:37:49.304Z,37.13
2017-10-19T08:40:17.589Z,36.00
2017-10-19T08:42:45.875Z,40.20
2017-10-19T08:45:14.179Z,39.77
2017-10-19T08:47:43.217Z,34.20
2017-10-19T08:50:11.512Z,37.23
2017-10-19T08:52:39.870Z,38.17
2017-10-19T08:55:08.177Z,38.70
2017-10-19T08:57:36.453Z,47.60
2017-10-19T09:00:04.741Z,38.67
2017-10-19T09:02:33.044Z,44.43
2017-10-19T09:05:02.205Z,37.60
2017-10-19T09:07:31.277Z,46.13
2017-10-19T09:09:59.564Z,41.83
2017-10-19T09:12:27.836Z,44.93
2017-10-19T09:14:56.125Z,39.93
2017-10-19T09:17:24.408Z,40.60
2017-10-19T09:19:52.780Z,42.23
2017-10-19T09:22:21.050Z,44.60
2017-10-19T09:24:49.331Z,40.60
2017-10-19T09:27:17.621Z,56.80
2017-10-19T09:29:45.952Z,49.10
2017-10-19T09:32:15.011Z,41.57
2017-10-19T09:34:43.374Z,42.07
2017-10-19T09:37:11.647Z,43.90
2017-10-19T09:39:39.936Z,43.30
2017-10-19T09:42:08.209Z,39.07
2017-10-19T09:44:36.576Z,42.50
2017-10-19T09:47:04.854Z,45.23
2017-10-19T09:49:33.242Z,43.57
2017-10-19T09:52:01.529Z,49.87
2017-10-19T09:54:29.809Z,43.93
2017-10-19T09:56:58.098Z,44.17
2017-10-19T09:59:27.145Z,46.93
2017-10-19T10:01:55.443Z,38.63
2017-10-19T10:04:23.726Z,45.73
2017-10-19T10:06:52.129Z,47.70
2017-10-19T10:09:20.409Z,48.20
2017-10-19T10:11:49.577Z,55.30
2017-10-19T10:14:17.857Z,42.30
2017-10-19T10:16:46.242Z,46.80
2017-10-19T10:19:14.505Z,80.87
2017-10-19T10:21:42.819Z,55.23
2017-10-19T10:24:11.923Z,42.93
2017-10-19T10:26:40.974Z,47.70
2017-10-19T10:29:09.246Z,50.03
2017-10-19T10:31:37.542Z,43.43
2017-10-19T10:34:05.931Z,44.97
2017-10-19T10:36:34.227Z,46.20
2017-10-19T10:39:03.253Z,43.93
2017-10-19T10:41:31.558Z,52.30
2017-10-19T10:43:59.831Z,54.10
2017-10-19T10:46:28.134Z,41.97
2017-10-19T10:48:56.493Z,49.20
2017-10-19T10:51:24.797Z,43.43
2017-10-19T10:53:53.826Z,57.10
2017-10-19T10:56:22.122Z,40.53
2017-10-19T10:58:50.405Z,46.40
2017-10-19T11:01:18.685Z,43.30
2017-10-19T11:03:46.951Z,51.60
2017-10-19T11:06:15.366Z,50.17
2017-10-19T11:08:43.629Z,48.80
2017-10-19T11:11:11.921Z,48.83
2017-10-19T11:13:40.202Z,46.20
2017-10-19T11:16:08.562Z,44.37
2017-10-19T11:18:36.850Z,47.80
2017-10-19T11:21:05.134Z,54.00
2017-10-19T11:23:33.398Z,46.33
2017-10-19T11:26:01.685Z,46.00
2017-10-19T11:28:29.961Z,51.30
2017-10-19T11:30:58.252Z,40.60
2017-10-19T11:33:27.280Z,45.03
2017-10-19T11:35:55.571Z,41.40
2017-10-19T11:38:23.876Z,43.93
2017-10-19T11:40:52.146Z,47.53
2017-10-19T11:43:20.533Z,50.47
2017-10-19T11:45:48.806Z,42.23
2017-10-19T11:48:17.097Z,43.60
2017-10-19T11:50:45.374Z,42.87
2017-10-19T11:53:13.746Z,45.07
2017-10-19T11:55:42.126Z,44.13
2017-10-19T11:58:10.400Z,40.87
2017-10-19T12:00:38.698Z,38.73
2017-10-19T12:03:07.157Z,40.50
2017-10-19T12:05:35.418Z,36.30
2017-10-19T12:08:03.826Z,41.50
2017-10-19T12:10:32.089Z,43.90
2017-10-19T12:13:00.489Z,46.93
2017-10-19T12:15:28.866Z,44.33
2017-10-19T12:17:57.232Z,37.03
2017-10-19T12:20:25.493Z,41.77
2017-10-19T12:22:53.893Z,40.27
2017-10-19T12:25:22.256Z,42.40
2017-10-19T12:27:50.656Z,38.73
2017-10-19T12:30:19.022Z,43.23
2017-10-19T12:32:47.429Z,45.10
2017-10-19T12:35:15.691Z,42.40
2017-10-19T12:37:44.052Z,41.30
2017-10-19T12:40:12.450Z,45.63
2017-10-19T12:42:40.728Z,33.80
2017-10-19T12:45:10.529Z,39.97
2017-10-19T12:47:38.800Z,35.43
2017-10-19T12:50:07.112Z,37.20
2017-10-19T12:52:35.377Z,42.57
2017-10-19T12:55:03.744Z,45.00
2017-10-19T12:57:32.021Z,42.10
2017-10-19T13:00:00.413Z,44.97
2017-10-19T13:02:29.585Z,43.47
2017-10-19T13:04:58.693Z,41.37
2017-10-19T13:07:27.001Z,39.97
2017-10-19T13:09:56.084Z,40.07
2017-10-19T13:12:26.168Z,37.20
2017-10-19T13:14:54.543Z,40.03
2017-10-19T13:17:23.438Z,41.20
2017-10-19T13:19:51.721Z,40.07
2017-10-19T13:22:19.976Z,41.00
2017-10-19T13:24:49.133Z,39.00
2017-10-19T13:27:19.163Z,39.60
2017-10-19T13:29:48.402Z,40.10
2017-10-19T13:32:18.578Z,46.87
2017-10-19T13:34:46.870Z,42.43
2017-10-19T13:37:15.268Z,41.20
2017-10-19T13:39:43.553Z,40.53
2017-10-19T13:42:12.113Z,41.47
2017-10-19T13:44:41.156Z,37.23
2017-10-19T13:47:10.201Z,42.23
2017-10-19T13:49:41.158Z,40.13
2017-10-19T13:52:09.515Z,43.77
2017-10-19T13:54:39.344Z,36.90
2017-10-19T13:57:07.633Z,36.60
2017-10-19T13:59:35.946Z,36.10
2017-10-19T14:02:04.284Z,39.37
2017-10-19T14:04:32.569Z,33.73
2017-10-19T14:07:00.842Z,36.80
2017-10-19T14:09:29.133Z,41.67
2017-10-19T14:11:58.181Z,37.13
2017-10-19T14:14:26.474Z,40.03
2017-10-19T14:16:54.746Z,37.07
2017-10-19T14:19:23.040Z,39.03
2017-10-19T14:21:51.308Z,36.50
2017-10-19T14:24:19.597Z,36.13
2017-10-19T14:26:47.965Z,36.63
2017-10-19T14:29:16.266Z,38.53
2017-10-19T14:31:44.533Z,36.70
2017-10-19T14:34:12.897Z,34.93
2017-10-19T14:36:41.194Z,37.83
2017-10-19T14:39:09.454Z,38.37
2017-10-19T14:41:37.744Z,40.20
2017-10-19T14:44:06.016Z,42.10
2017-10-19T14:46:34.323Z,40.63
2017-10-19T14:49:03.370Z,41.57
2017-10-19T14:51:31.658Z,42.37
2017-10-19T14:54:00.054Z,40.87
2017-10-19T14:56:28.414Z,40.60
2017-10-19T14:58:56.688Z,43.93
2017-10-19T15:01:24.970Z,43.60
2017-10-19T15:03:53.243Z,44.57
2017-10-19T15:06:21.627Z,37.33
2017-10-19T15:08:49.893Z,41.67
2017-10-19T15:11:18.272Z,43.30
2017-10-19T15:13:46.557Z,42.00
2017-10-19T15:16:14.849Z,43.20
2017-10-19T15:18:43.201Z,39.47
2017-10-19T15:21:11.494Z,41.13
2017-10-19T15:23:39.769Z,45.27
2017-10-19T15:26:08.145Z,38.93
2017-10-19T15:28:36.423Z,40.97
2017-10-19T15:31:04.804Z,41.43
2017-10-19T15:33:33.185Z,45.10
2017-10-19T15:36:01.538Z,43.10
2017-10-19T15:38:29.865Z,45.00
2017-10-19T15:40:58.187Z,44.50
2017-10-19T15:43:27.539Z,46.17
2017-10-19T15:45:55.811Z,43.60
2017-10-19T15:48:24.181Z,48.80
2017-10-19T15:51:04.421Z,43.77
2017-10-19T15:53:32.715Z,47.50
2017-10-19T15:56:01.894Z,45.60
2017-10-19T15:58:30.972Z,43.07
2017-10-19T16:01:00.261Z,51.20
2017-10-19T16:03:28.623Z,47.50
2017-10-19T16:05:56.898Z,45.80
2017-10-19T16:08:25.223Z,48.07
2017-10-19T16:10:53.615Z,50.67
2017-10-19T16:13:22.800Z,52.33
2017-10-19T16:15:52.350Z,51.40
2017-10-19T16:18:21.453Z,55.87
2017-10-19T16:20:49.723Z,48.27
2017-10-19T16:23:18.346Z,52.80
2017-10-19T16:25:46.652Z,51.47
2017-10-19T16:28:14.983Z,53.23
2017-10-19T16:30:43.267Z,57.37
2017-10-19T16:33:12.296Z,54.90
2017-10-19T16:35:41.352Z,51.37
2017-10-19T16:38:09.624Z,55.40
2017-10-19T16:40:37.917Z,53.47
2017-10-19T16:43:06.183Z,52.13
2017-10-19T16:45:34.475Z,50.00
2017-10-19T16:48:02.744Z,50.43
2017-10-19T16:50:31.050Z,52.60
2017-10-19T16:52:59.449Z,57.77
2017-10-19T16:55:27.741Z,53.20
2017-10-19T16:57:56.012Z,57.10
2017-10-19T17:00:24.329Z,50.53
2017-10-19T17:02:52.606Z,59.17
2017-10-19T17:05:20.914Z,49.03
2017-10-19T17:07:50.848Z,61.50
2017-10-19T17:10:19.131Z,54.50
2017-10-19T17:12:48.182Z,61.13
2017-10-19T17:15:16.561Z,53.50
2017-10-19T17:17:44.834Z,58.77
2017-10-19T17:20:13.134Z,56.83
2017-10-19T17:22:41.408Z,55.10
2017-10-19T17:25:09.683Z,56.67
2017-10-19T17:27:37.982Z,54.33
2017-10-19T17:30:06.565Z,60.90
2017-10-19T17:32:34.820Z,54.83
2017-10-19T17:35:03.100Z,52.50
2017-10-19T17:37:31.376Z,58.83
2017-10-19T17:39:59.778Z,57.17
2017-10-19T17:42:28.034Z,61.30
2017-10-19T17:44:56.357Z,59.87
2017-10-19T17:47:25.428Z,60.17
2017-10-19T17:49:55.230Z,60.10
2017-10-19T17:52:23.501Z,56.97
2017-10-19T17:54:51.792Z,61.03
2017-10-19T17:57:20.067Z,60.43
2017-10-19T17:59:48.650Z,59.80
2017-10-19T18:02:17.727Z,67.83
2017-10-19T18:04:46.018Z,64.40
2017-10-19T18:07:14.284Z,63.13
2017-10-19T18:09:42.581Z,62.93
2017-10-19T18:12:10.850Z,66.20
2017-10-19T18:14:39.235Z,68.00
2017-10-19T18:17:07.618Z,68.63
2017-10-19T18:19:35.913Z,69.00
2017-10-19T18:22:04.182Z,75.40
2017-10-19T18:24:32.488Z,59.80
2017-10-19T18:27:01.545Z,63.03
2017-10-19T18:29:29.837Z,74.07
2017-10-19T18:31:58.121Z,60.67
2017-10-19T18:34:26.392Z,65.43
2017-10-19T18:36:54.757Z,61.40
2017-10-19T18:39:23.032Z,66.37
2017-10-19T18:41:51.324Z,71.17
2017-10-19T18:44:19.586Z,73.77
2017-10-19T18:46:47.879Z,73.83
2017-10-19T18:49:16.144Z,72.20
2017-10-19T18:51:44.433Z,72.60
2017-10-19T18:54:12.709Z,73.90
2017-10-19T18:56:41.060Z,68.73
2017-10-19T18:59:09.364Z,75.33
2017-10-19T19:01:37.651Z,71.57
2017-10-19T19:04:06.687Z,76.10
2017-10-19T19:06:34.967Z,70.30
2017-10-19T19:09:03.275Z,65.43
2017-10-19T19:11:31.656Z,70.80
2017-10-19T19:13:59.930Z,64.60
2017-10-19T19:16:28.216Z,64.90
2017-10-19T19:18:56.482Z,64.10
2017-10-19T19:21:24.782Z,77.90
2017-10-19T19:23:53.090Z,59.60
2017-10-19T19:26:21.391Z,70.27
2017-10-19T19:28:49.664Z,80.17
2017-10-19T19:31:17.961Z,69.30
2017-10-19T19:33:46.245Z,70.57
2017-10-19T19:36:14.557Z,62.97
2017-10-19T19:38:43.619Z,61.20
2017-10-19T19:41:11.885Z,64.27
2017-10-19T19:43:40.280Z,71.03
2017-10-19T19:46:08.549Z,76.20
2017-10-19T19:48:36.938Z,59.80
2017-10-19T19:51:05.322Z,63.20
2017-10-19T19:53:33.604Z,66.77
2017-10-19T19:56:01.889Z,71.57
2017-10-19T19:58:30.163Z,65.70
2017-10-19T20:00:58.440Z,67.20
2017-10-19T20:03:27.008Z,65.00
2017-10-19T20:05:56.084Z,79.83
2017-10-19T20:08:24.497Z,68.17
2017-10-19T20:10:52.878Z,68.40
2017-10-19T20:13:21.195Z,63.00
2017-10-19T20:15:49.464Z,70.73
2017-10-19T20:18:17.794Z,63.90
2017-10-19T20:20:46.176Z,64.90
2017-10-19T20:23:14.456Z,85.30
2017-10-19T20:25:43.616Z,72.90
2017-10-19T20:28:11.920Z,76.53
2017-10-19T20:30:40.291Z,70.20
2017-10-19T20:33:08.609Z,75.00
2017-10-19T20:35:36.873Z,75.83
2017-10-19T20:38:05.939Z,75.67
2017-10-19T20:40:34.304Z,72.53
2017-10-19T20:43:02.598Z,75.70
2017-10-19T20:45:30.893Z,71.17
2017-10-19T20:47:59.940Z,64.13
2017-10-19T20:50:28.218Z,70.07
2017-10-19T20:52:56.511Z,73.33
2017-10-19T20:55:24.894Z,70.23
2017-10-19T20:57:53.262Z,65.37
2017-10-19T21:00:21.532Z,80.13
2017-10-19T21:02:49.828Z,67.00
2017-10-19T21:05:18.104Z,65.50
2017-10-19T21:07:46.412Z,74.33
2017-10-19T21:10:15.476Z,75.47
2017-10-19T21:12:43.772Z,86.03
2017-10-19T21:15:12.032Z,74.43
2017-10-19T21:17:41.098Z,68.20
2017-10-19T21:20:09.451Z,67.03
2017-10-19T21:22:38.495Z,68.90
2017-10-19T21:25:06.781Z,79.50
2017-10-19T21:27:35.144Z,68.30
2017-10-19T21:30:03.441Z,73.87
2017-10-19T21:32:32.525Z,73.47
2017-10-19T21:35:00.910Z,72.50
2017-10-19T21:37:29.224Z,65.00
2017-10-19T21:39:57.548Z,72.43
2017-10-19T21:42:25.845Z,69.93
2017-10-19T21:44:54.214Z,65.33
2017-10-19T21:47:22.493Z,80.30
2017-10-19T21:49:50.764Z,64.00
2017-10-19T21:52:19.052Z,71.10
2017-10-19T21:54:47.315Z,80.13
2017-10-19T21:57:16.815Z,75.07
2017-10-19T21:59:46.105Z,67.83
2017-10-19T22:02:14.421Z,67.57
2017-10-19T22:04:43.028Z,69.77
2017-10-19T22:07:12.394Z,62.87
2017-10-19T22:09:40.684Z,70.37
2017-10-19T22:12:09.970Z,66.47
2017-10-19T22:14:38.318Z,73.10
2017-10-19T22:17:06.951Z,70.67
2017-10-19T22:19:35.277Z,64.00
2017-10-19T22:22:03.553Z,61.50
2017-10-19T22:24:31.859Z,67.23
2017-10-19T22:27:00.137Z,63.60
2017-10-19T22:29:28.420Z,68.30
2017-10-19T22:31:56.706Z,77.97
2017-10-19T22:34:25.014Z,73.03
2017-10-19T22:36:54.076Z,76.30
2017-10-19T22:39:22.381Z,73.30
2017-10-19T22:41:51.417Z,70.53
2017-10-19T22:44:19.700Z,70.30
2017-10-19T22:46:47.970Z,73.70
2017-10-19T22:49:16.366Z,70.83
2017-10-19T22:51:44.750Z,78.43
2017-10-19T22:54:13.129Z,73.53
2017-10-19T22:56:41.420Z,70.73
2017-10-19T22:59:09.803Z,80.10
2017-10-19T23:01:38.177Z,74.63
2017-10-19T23:04:06.474Z,72.23
2017-10-19T23:06:35.515Z,76.27
2017-10-19T23:09:03.805Z,72.30
2017-10-19T23:11:32.107Z,73.97
2017-10-19T23:14:00.399Z,63.77
2017-10-19T23:16:29.446Z,72.70
2017-10-19T23:18:57.721Z,70.53
2017-10-19T23:21:26.003Z,71.20
2017-10-19T23:23:54.304Z,65.53
2017-10-19T23:26:22.602Z,67.13
2017-10-19T23:28:50.884Z,71.33
2017-10-19T23:31:19.920Z,68.13
2017-10-19T23:33:48.202Z,72.73
2017-10-19T23:36:16.610Z,83.57
2017-10-19T23:38:44.883Z,75.60
2017-10-19T23:41:13.264Z,69.97
2017-10-19T23:43:41.652Z,61.27
2017-10-19T23:46:09.930Z,65.30
2017-10-19T23:48:38.234Z,61.87
2017-10-19T23:51:07.289Z,66.77
2017-10-19T23:53:35.670Z,67.10
2017-10-19T23:56:03.950Z,68.67
2017-10-19T23:58:32.249Z,64.23
